Time;durP1;ratioP1;P1;durP2;ratioP2;P2;SDS_P1;SDS_P2;PMS_P1;PMS_P2;Temp;Humidity;BMP_temperature;BMP_pressure;BME280_temperature;BME280_humidity;BME280_pressure;Samples;Min_cycle;Max_cycle;Signal;HPM_P1;HPM_P2
2023/09/07 00:00:44;;;;;;;;;;;;;;;;;;4977466;28;19918;-92
2023/09/07 00:03:10;;;;;;;;;;;;;;;;;;4976744;28;19957;-91
2023/09/07 00:05:35;;;;;;;;;;;;;;;;;;4971834;28;20304;-91
2023/09/07 00:08:01;;;;;;;;;;;;;;;;;;4979533;28;19928;-91
2023/09/07 00:10:27;;;;;;;;;;;;;;;;;;4979146;28;19937;-91
2023/09/07 00:12:53;;;;;;;;;;;;;;;;;;4972687;28;19914;-91
2023/09/07 00:15:20;;;;;;;;;;;;;;;;;;4989183;28;19925;-91
2023/09/07 00:17:46;;;;;;;;;;;;;;;;;;4975784;28;19922;-91
2023/09/07 00:20:16;;;;;;;;;;;;;;;;;;4977606;28;19928;-92
2023/09/07 00:22:42;;;;;;;;;;;;;;;;;;4970050;28;20425;-91
2023/09/07 00:25:08;;;;;;;;;;;;;;;;;;4973317;28;20021;-91
2023/09/07 00:27:34;;;;;;;;;;;;;;;;;;4969597;28;20559;-90
2023/09/07 00:30:00;;;;;;;;;;;;;;;;;;4971914;28;19918;-90
2023/09/07 00:32:26;;;;;;;;;;;;;;;;;;4973774;28;19968;-90
2023/09/07 00:34:52;;;;;;;;;;;;;;;;;;4974272;28;19925;-90
2023/09/07 00:37:18;;;;;;;;;;;;;;;;;;4980588;28;19914;-90
2023/09/07 00:39:44;;;;;;;;;;;;;;;;;;4976088;28;19947;-90
2023/09/07 00:42:10;;;;;;;;;;;;;;;;;;4971634;28;20131;-90
2023/09/07 00:44:36;;;;;;;;;;;;;;;;;;4972586;28;20127;-90
2023/09/07 00:47:02;;;;;;;;;;;;;;;;;;4989808;28;20020;-90
2023/09/07 00:49:28;;;;;;;;;;;;;;;;;;4975677;28;19949;-91
2023/09/07 00:51:54;;;;;;;;;;;;;;;;;;4972679;28;20366;-90
2023/09/07 00:54:20;;;;;;;;;;;;;;;;;;4974700;28;19917;-90
2023/09/07 00:56:46;;;;;;;;;;;;;;;;;;4970823;28;19913;-90
2023/09/07 00:59:12;;;;;;;;;;;;;;;;;;4976843;28;20012;-91
2023/09/07 01:01:37;;;;;;;;;;;;;;;;;;4973436;28;19974;-91
2023/09/07 01:04:04;;;;;;;;;;;;;;;;;;4979113;28;19924;-90
2023/09/07 01:06:30;;;;;;;;;;;;;;;;;;4976737;28;19929;-90
2023/09/07 01:08:56;;;;;;;;;;;;;;;;;;4980653;28;19913;-90
2023/09/07 01:11:26;;;;;;;;;;;;;;;;;;4974512;28;20011;-90
2023/09/07 01:13:53;;;;;;;;;;;;;;;;;;4978274;28;19995;-90
2023/09/07 01:16:20;;;;;;;;;;;;;;;;;;4976898;28;19914;-90
2023/09/07 01:18:49;;;;;;;;;;;;;;;;;;4980409;28;20378;-89
2023/09/07 01:21:15;;;;;;;;;;;;;;;;;;4972926;28;20580;-90
2023/09/07 01:23:41;;;;;;;;;;;;;;;;;;4986391;28;19914;-90
2023/09/07 01:26:08;;;;;;;;;;;;;;;;;;4976605;28;19914;-90
2023/09/07 01:28:34;;;;;;;;;;;;;;;;;;4977484;28;19918;-90
2023/09/07 01:31:06;;;;;;;;;;;;;;;;;;4970097;28;19932;-90
2023/09/07 01:33:32;;;;;;;;;;;;;;;;;;4971685;28;19922;-90
2023/09/07 01:35:58;;;;;;;;;;;;;;;;;;4972598;28;20045;-89
2023/09/07 01:38:24;;;;;;;;;;;;;;;;;;4968078;28;19914;-90
2023/09/07 01:40:50;;;;;;;;;;;;;;;;;;4984393;28;19918;-90
2023/09/07 01:43:16;;;;;;;;;;;;;;;;;;4977809;28;19922;-90
2023/09/07 01:45:42;;;;;;;;;;;;;;;;;;4976062;28;19929;-90
2023/09/07 01:48:08;;;;;;;;;;;;;;;;;;4975645;28;19993;-90
2023/09/07 01:50:33;;;;;;;;;;;;;;;;;;4972213;28;19918;-90
2023/09/07 01:52:59;;;;;;;;;;;;;;;;;;4976057;28;20680;-90
2023/09/07 01:55:25;;;;;;;;;;;;;;;;;;4973018;28;19914;-91
2023/09/07 01:57:51;;;;;;;;;;;;;;;;;;4995393;28;19921;-93
2023/09/07 02:00:17;;;;;;;;;;;;;;;;;;4976264;28;20325;-94
2023/09/07 02:02:46;;;;;;;;;;;;;;;;;;4974227;28;19914;-96
2023/09/07 02:05:12;;;;;;;;;;;;;;;;;;4978072;28;19968;-95
2023/09/07 02:07:38;;;;;;;;;;;;;;;;;;4975578;28;19957;-93
2023/09/07 02:10:04;;;;;;;;;;;;;;;;;;4976468;28;19926;-94
2023/09/07 02:12:30;;;;;;;;;;;;;;;;;;4975429;28;20289;-95
2023/09/07 02:14:56;;;;;;;;;;;;;;;;;;4976296;28;19973;-93
2023/09/07 02:17:22;;;;;;;;;;;;;;;;;;4975341;28;19917;-94
2023/09/07 02:19:47;;;;;;;;;;;;;;;;;;4991563;28;19923;-92
2023/09/07 02:22:14;;;;;;;;;;;;;;;;;;4991530;28;19965;-94
2023/09/07 02:24:40;;;;;;;;;;;;;;;;;;4989920;28;19922;-95
2023/09/07 02:27:06;;;;;;;;;;;;;;;;;;4994126;28;19941;-94
2023/09/07 02:29:31;;;;;;;;;;;;;;;;;;4994621;28;20482;-95
2023/09/07 02:31:57;;;;;;;;;;;;;;;;;;4993853;28;20373;-94
2023/09/07 02:34:24;;;;;;;;;;;;;;;;;;4987942;28;20336;-94
2023/09/07 02:36:50;;;;;;;;;;;;;;;;;;4992717;28;19949;-94
2023/09/07 02:39:17;;;;;;;;;;;;;;;;;;4990960;28;19973;-94
2023/09/07 02:41:43;;;;;;;;;;;;;;;;;;4986816;28;19917;-94
2023/09/07 02:44:09;;;;;;;;;;;;;;;;;;4989378;28;19945;-95
2023/09/07 02:46:35;;;;;;;;;;;;;;;;;;4993416;28;20387;-94
2023/09/07 02:49:01;;;;;;;;;;;;;;;;;;4991467;28;19916;-94
2023/09/07 02:51:26;;;;;;;;;;;;;;;;;;4991487;28;19924;-93
2023/09/07 02:53:52;;;;;;;;;;;;;;;;;;4991547;28;19921;-93
2023/09/07 02:56:18;;;;;;;;;;;;;;;;;;4987961;28;19914;-96
2023/09/07 02:58:45;;;;;;;;;;;;;;;;;;4990599;28;19914;-94
2023/09/07 03:01:11;;;;;;;;;;;;;;;;;;4991606;28;19913;-94
2023/09/07 03:03:37;;;;;;;;;;;;;;;;;;4989935;28;19918;-94
2023/09/07 03:06:04;;;;;;;;;;;;;;;;;;4993101;28;19917;-94
2023/09/07 03:08:30;;;;;;;;;;;;;;;;;;4995558;28;19929;-93
2023/09/07 03:10:55;;;;;;;;;;;;;;;;;;4997784;28;20365;-95
2023/09/07 03:13:21;;;;;;;;;;;;;;;;;;4999961;28;19922;-95
2023/09/07 03:15:47;;;;;;;;;;;;;;;;;;4995806;28;19914;-94
2023/09/07 03:18:13;;;;;;;;;;;;;;;;;;4994741;28;19926;-95
2023/09/07 03:20:39;;;;;;;;;;;;;;;;;;4972969;28;19925;-94
2023/09/07 03:23:05;;;;;;;;;;;;;;;;;;4973026;28;19922;-94
2023/09/07 03:25:31;;;;;;;;;;;;;;;;;;4973181;28;20091;-94
2023/09/07 03:27:57;;;;;;;;;;;;;;;;;;4977854;28;19918;-94
2023/09/07 03:30:23;;;;;;;;;;;;;;;;;;4976172;28;19914;-94
2023/09/07 03:32:49;;;;;;;;;;;;;;;;;;4973893;28;19999;-96
2023/09/07 03:35:15;;;;;;;;;;;;;;;;;;4977435;28;19917;-94
2023/09/07 03:37:41;;;;;;;;;;;;;;;;;;4976897;28;19917;-94
2023/09/07 03:40:08;;;;;;;;;;;;;;;;;;4969427;28;19914;-94
2023/09/07 03:42:34;;;;;;;;;;;;;;;;;;4969821;28;19952;-94
2023/09/07 03:45:00;;;;;;;;;;;;;;;;;;4975166;28;20012;-95
2023/09/07 03:47:29;;;;;;;;;;;;;;;;;;4986920;28;20068;-94
2023/09/07 03:49:58;;;;;;;;;;;;;;;;;;4973244;28;20012;-93
2023/09/07 03:52:26;;;;;;;;;;;;;;;;;;4979185;28;20296;-94
2023/09/07 03:54:52;;;;;;;;;;;;;;;;;;4971835;28;19950;-94
2023/09/07 03:57:18;;;;;;;;;;;;;;;;;;4970719;28;19918;-92
2023/09/07 03:59:43;;;;;;;;;;;;;;;;;;4979373;28;19973;-94
2023/09/07 04:02:09;;;;;;;;;;;;;;;;;;4973152;28;19921;-94
2023/09/07 04:04:36;;;;;;;;;;;;;;;;;;4974008;28;19969;-94
2023/09/07 04:07:01;;;;;;;;;;;;;;;;;;4990161;28;19922;-95
2023/09/07 04:09:28;;;;;;;;;;;;;;;;;;4970614;28;20385;-93
2023/09/07 04:11:54;;;;;;;;;;;;;;;;;;4973741;28;19910;-93
2023/09/07 04:14:20;;;;;;;;;;;;;;;;;;4972060;28;19957;-94
2023/09/07 04:16:45;;;;;;;;;;;;;;;;;;4982142;28;19910;-90
2023/09/07 04:19:12;;;;;;;;;;;;;;;;;;4973457;28;20569;-90
2023/09/07 04:21:38;;;;;;;;;;;;;;;;;;4989654;28;19981;-90
2023/09/07 04:24:04;;;;;;;;;;;;;;;;;;4989242;28;19918;-90
2023/09/07 04:26:30;;;;;;;;;;;;;;;;;;4980371;28;19925;-90
2023/09/07 04:28:56;;;;;;;;;;;;;;;;;;4991325;28;19921;-90
2023/09/07 04:31:24;;;;;;;;;;;;;;;;;;4977536;28;20012;-90
2023/09/07 04:33:50;;;;;;;;;;;;;;;;;;4975016;28;19973;-90
2023/09/07 04:36:16;;;;;;;;;;;;;;;;;;4972656;28;20060;-90
2023/09/07 04:38:44;;;;;;;;;;;;;;;;;;4987571;28;19964;-91
2023/09/07 04:41:10;;;;;;;;;;;;;;;;;;4984611;28;19914;-89
2023/09/07 04:43:36;;;;;;;;;;;;;;;;;;4974767;28;19913;-90
2023/09/07 04:46:02;;;;;;;;;;;;;;;;;;4970654;28;19928;-90
2023/09/07 04:48:28;;;;;;;;;;;;;;;;;;4976974;28;19950;-90
2023/09/07 04:50:54;;;;;;;;;;;;;;;;;;4981764;28;20012;-90
2023/09/07 04:53:20;;;;;;;;;;;;;;;;;;4983657;28;19914;-90
2023/09/07 04:55:46;;;;;;;;;;;;;;;;;;4974125;28;19952;-89
2023/09/07 04:58:12;;;;;;;;;;;;;;;;;;4971897;28;19926;-90
2023/09/07 05:00:38;;;;;;;;;;;;;;;;;;4971480;28;19914;-90
2023/09/07 05:03:04;;;;;;;;;;;;;;;;;;4971143;28;19913;-90
2023/09/07 05:05:30;;;;;;;;;;;;;;;;;;4976424;28;20448;-90
2023/09/07 05:07:56;;;;;;;;;;;;;;;;;;4975790;28;19922;-91
2023/09/07 05:10:22;;;;;;;;;;;;;;;;;;4978994;28;19922;-91
2023/09/07 05:12:48;;;;;;;;;;;;;;;;;;4972824;28;20013;-91
2023/09/07 05:15:14;;;;;;;;;;;;;;;;;;4976302;28;19922;-91
2023/09/07 05:17:40;;;;;;;;;;;;;;;;;;4975926;28;19922;-91
2023/09/07 05:20:06;;;;;;;;;;;;;;;;;;4980526;28;20020;-91
2023/09/07 05:22:36;;;;;;;;;;;;;;;;;;4974914;28;19917;-91
2023/09/07 05:25:03;;;;;;;;;;;;;;;;;;4971776;28;19969;-91
2023/09/07 05:27:28;;;;;;;;;;;;;;;;;;4979981;28;19921;-94
2023/09/07 05:29:54;;;;;;;;;;;;;;;;;;4977041;28;19917;-94
2023/09/07 05:32:20;;;;;;;;;;;;;;;;;;4964866;28;20466;-94
2023/09/07 05:34:46;;;;;;;;;;;;;;;;;;4990656;28;20032;-94
2023/09/07 05:37:12;;;;;;;;;;;;;;;;;;4974801;28;19918;-94
2023/09/07 05:39:38;;;;;;;;;;;;;;;;;;4973985;28;19918;-94
2023/09/07 05:42:04;;;;;;;;;;;;;;;;;;4973410;28;20306;-94
2023/09/07 05:44:30;;;;;;;;;;;;;;;;;;4974439;28;19957;-94
2023/09/07 05:46:58;;;;;;;;;;;;;;;;;;4975377;28;19929;-93
2023/09/07 05:49:24;;;;;;;;;;;;;;;;;;4977087;28;19976;-94
2023/09/07 05:51:50;;;;;;;;;;;;;;;;;;4969770;28;19955;-94
2023/09/07 05:54:16;;;;;;;;;;;;;;;;;;4976418;28;19914;-94
2023/09/07 05:56:42;;;;;;;;;;;;;;;;;;4976911;28;19969;-94
2023/09/07 05:59:07;;;;;;;;;;;;;;;;;;4975474;28;19941;-94
2023/09/07 06:01:33;;;;;;;;;;;;;;;;;;4976003;28;19957;-94
2023/09/07 06:03:59;;;;;;;;;;;;;;;;;;4971466;28;20349;-94
2023/09/07 06:06:25;;;;;;;;;;;;;;;;;;4983914;28;19922;-94
2023/09/07 06:08:51;;;;;;;;;;;;;;;;;;4976758;28;19929;-95
2023/09/07 06:11:17;;;;;;;;;;;;;;;;;;4972980;28;19960;-94
2023/09/07 06:13:43;;;;;;;;;;;;;;;;;;4976984;28;20012;-93
2023/09/07 06:16:09;;;;;;;;;;;;;;;;;;4975231;28;20032;-93
2023/09/07 06:18:35;;;;;;;;;;;;;;;;;;4975526;28;19932;-93
2023/09/07 06:21:01;;;;;;;;;;;;;;;;;;4996971;28;19928;-93
2023/09/07 06:23:27;;;;;;;;;;;;;;;;;;5007745;28;19918;-93
2023/09/07 06:25:53;;;;;;;;;;;;;;;;;;4990953;28;19921;-94
2023/09/07 06:28:26;;;;;;;;;;;;;;;;;;4984641;28;22263;-94
2023/09/07 06:30:52;;;;;;;;;;;;;;;;;;5006116;28;19955;-95
2023/09/07 06:33:18;;;;;;;;;;;;;;;;;;4992577;28;19921;-94
2023/09/07 06:35:44;;;;;;;;;;;;;;;;;;4993740;28;19913;-94
2023/09/07 06:38:10;;;;;;;;;;;;;;;;;;4990579;28;19913;-93
2023/09/07 06:40:36;;;;;;;;;;;;;;;;;;4990260;28;19968;-93
2023/09/07 06:43:05;;;;;;;;;;;;;;;;;;4991041;28;20017;-94
2023/09/07 06:45:31;;;;;;;;;;;;;;;;;;4989472;28;20369;-93
2023/09/07 06:47:57;;;;;;;;;;;;;;;;;;4984185;28;19925;-93
2023/09/07 06:50:23;;;;;;;;;;;;;;;;;;5011251;28;19918;-94
2023/09/07 06:52:49;;;;;;;;;;;;;;;;;;4998104;28;20633;-93
2023/09/07 06:55:14;;;;;;;;;;;;;;;;;;4989967;28;20061;-93
2023/09/07 06:57:40;;;;;;;;;;;;;;;;;;4995324;28;19917;-94
2023/09/07 07:00:06;;;;;;;;;;;;;;;;;;4995833;28;19921;-94
2023/09/07 07:02:32;;;;;;;;;;;;;;;;;;4997306;28;19929;-94
2023/09/07 07:04:58;;;;;;;;;;;;;;;;;;4990507;28;20027;-94
2023/09/07 07:07:27;;;;;;;;;;;;;;;;;;4995616;28;19984;-95
2023/09/07 07:09:53;;;;;;;;;;;;;;;;;;4991367;28;20704;-93
2023/09/07 07:12:20;;;;;;;;;;;;;;;;;;4997368;28;19976;-93
2023/09/07 07:14:46;;;;;;;;;;;;;;;;;;4994831;28;19985;-93
2023/09/07 07:17:15;;;;;;;;;;;;;;;;;;4999851;28;19925;-94
2023/09/07 07:19:42;;;;;;;;;;;;;;;;;;4988269;28;19985;-94
2023/09/07 07:22:08;;;;;;;;;;;;;;;;;;4969863;28;20424;-94
2023/09/07 07:24:34;;;;;;;;;;;;;;;;;;4968220;28;19936;-93
2023/09/07 07:27:08;;;;;;;;;;;;;;;;;;4976115;28;19992;-95
2023/09/07 07:29:34;;;;;;;;;;;;;;;;;;4972250;28;19918;-93
2023/09/07 07:31:59;;;;;;;;;;;;;;;;;;4982919;28;19918;-94
2023/09/07 07:34:25;;;;;;;;;;;;;;;;;;4975817;28;19922;-95
2023/09/07 07:36:51;;;;;;;;;;;;;;;;;;4971073;28;19929;-94
2023/09/07 07:39:18;;;;;;;;;;;;;;;;;;4968724;28;19922;-95
2023/09/07 07:41:45;;;;;;;;;;;;;;;;;;4974479;28;20408;-96
2023/09/07 07:44:11;;;;;;;;;;;;;;;;;;4986725;28;19918;-93
2023/09/07 07:46:38;;;;;;;;;;;;;;;;;;4982986;28;19921;-91
2023/09/07 07:49:04;;;;;;;;;;;;;;;;;;4972077;28;20432;-91
2023/09/07 07:51:30;;;;;;;;;;;;;;;;;;4976903;28;19921;-91
2023/09/07 07:53:56;;;;;;;;;;;;;;;;;;4970777;28;19925;-91
2023/09/07 07:56:22;;;;;;;;;;;;;;;;;;4979790;28;19924;-92
2023/09/07 07:58:51;;;;;;;;;;;;;;;;;;4976944;28;20012;-92
2023/09/07 08:01:17;;;;;;;;;;;;;;;;;;4981410;28;19914;-91
2023/09/07 08:03:43;;;;;;;;;;;;;;;;;;4986753;28;19925;-91
2023/09/07 08:06:10;;;;;;;;;;;;;;;;;;4981062;28;19918;-91
2023/09/07 08:08:36;;;;;;;;;;;;;;;;;;4979209;28;19973;-92
2023/09/07 08:11:06;;;;;;;;;;;;;;;;;;4981346;28;19997;-91
2023/09/07 08:13:32;;;;;;;;;;;;;;;;;;4976562;28;20293;-91
2023/09/07 08:16:01;;;;;;;;;;;;;;;;;;4984967;28;20405;-92
2023/09/07 08:18:28;;;;;;;;;;;;;;;;;;4974717;28;20004;-91
2023/09/07 08:20:54;;;;;;;;;;;;;;;;;;4977159;28;20385;-92
2023/09/07 08:23:21;;;;;;;;;;;;;;;;;;4980009;28;19963;-91
2023/09/07 08:25:50;;;;;;;;;;;;;;;;;;4973500;28;20036;-92
2023/09/07 08:28:18;;;;;;;;;;;;;;;;;;4976662;28;20369;-91
2023/09/07 08:30:54;;;;;;;;;;;;;;;;;;4975411;28;19941;-92
2023/09/07 08:33:22;;;;;;;;;;;;;;;;;;4979520;28;19913;-91
2023/09/07 08:35:48;;;;;;;;;;;;;;;;;;4980502;28;19953;-93
2023/09/07 08:38:14;;;;;;;;;;;;;;;;;;4985551;28;19914;-94
2023/09/07 08:40:41;;;;;;;;;;;;;;;;;;4974011;28;19921;-96
2023/09/07 08:43:07;;;;;;;;;;;;;;;;;;4972079;28;19918;-93
2023/09/07 08:45:33;;;;;;;;;;;;;;;;;;4980034;28;19918;-93
2023/09/07 08:47:59;;;;;;;;;;;;;;;;;;4980547;28;19918;-95
2023/09/07 08:50:25;;;;;;;;;;;;;;;;;;4978164;28;19921;-95
2023/09/07 08:52:51;;;;;;;;;;;;;;;;;;4980377;28;19940;-94
2023/09/07 08:55:18;;;;;;;;;;;;;;;;;;4983420;28;19983;-94
2023/09/07 08:57:44;;;;;;;;;;;;;;;;;;4975940;28;19997;-94
2023/09/07 09:00:15;;;;;;;;;;;;;;;;;;4972016;28;19956;-95
2023/09/07 09:02:41;;;;;;;;;;;;;;;;;;4980237;28;20042;-96
2023/09/07 09:05:07;;;;;;;;;;;;;;;;;;4976265;28;20422;-93
2023/09/07 09:07:33;;;;;;;;;;;;;;;;;;4971105;28;19913;-94
2023/09/07 09:10:11;;;;;;;;;;;;;;;;;;4983153;28;19957;-93
2023/09/07 09:12:40;;;;;;;;;;;;;;;;;;4980235;28;19968;-93
2023/09/07 09:15:06;;;;;;;;;;;;;;;;;;4973387;28;19913;-94
2023/09/07 09:17:32;;;;;;;;;;;;;;;;;;4973701;28;20340;-95
2023/09/07 09:19:58;;;;;;;;;;;;;;;;;;4980384;28;20005;-94
2023/09/07 09:22:24;;;;;;;;;;;;;;;;;;4981517;28;19918;-94
2023/09/07 09:24:50;;;;;;;;;;;;;;;;;;4981917;28;19964;-94
2023/09/07 09:27:17;;;;;;;;;;;;;;;;;;4977935;28;20510;-93
2023/09/07 09:29:55;;;;;;;;;;;;;;;;;;4971723;28;19945;-94
2023/09/07 09:32:21;;;;;;;;;;;;;;;;;;4974855;28;19979;-96
2023/09/07 09:34:47;;;;;;;;;;;;;;;;;;4975349;28;20040;-95
2023/09/07 09:37:18;;;;;;;;;;;;;;;;;;4981158;28;19921;-94
2023/09/07 09:39:44;;;;;;;;;;;;;;;;;;4981904;28;19909;-93
2023/09/07 09:42:16;;;;;;;;;;;;;;;;;;4992953;28;19925;-95
2023/09/07 09:44:42;;;;;;;;;;;;;;;;;;4993262;28;19918;-94
2023/09/07 09:47:18;;;;;;;;;;;;;;;;;;4992667;28;19920;-91
2023/09/07 09:49:44;;;;;;;;;;;;;;;;;;4989596;28;20009;-92
2023/09/07 09:52:11;;;;;;;;;;;;;;;;;;4976053;28;19941;-91
2023/09/07 09:54:38;;;;;;;;;;;;;;;;;;4976733;28;19914;-92
2023/09/07 09:57:05;;;;;;;;;;;;;;;;;;4979202;28;19922;-92
2023/09/07 09:59:37;;;;;;;;;;;;;;;;;;4977331;28;19921;-91
2023/09/07 10:02:03;;;;;;;;;;;;;;;;;;4973932;28;19922;-91
2023/09/07 10:04:29;;;;;;;;;;;;;;;;;;4976637;28;20435;-91
2023/09/07 10:06:59;;;;;;;;;;;;;;;;;;4976084;28;19914;-91
2023/09/07 10:09:26;;;;;;;;;;;;;;;;;;4973831;28;19913;-95
2023/09/07 10:11:53;;;;;;;;;;;;;;;;;;4971136;28;19934;-94
2023/09/07 10:14:22;;;;;;;;;;;;;;;;;;4977637;28;20329;-96
2023/09/07 10:16:48;;;;;;;;;;;;;;;;;;4975757;28;19940;-91
2023/09/07 10:19:15;;;;;;;;;;;;;;;;;;4973213;28;20008;-94
2023/09/07 10:21:44;;;;;;;;;;;;;;;;;;5011440;28;19913;-94
2023/09/07 10:24:11;;;;;;;;;;;;;;;;;;4991625;28;19913;-93
2023/09/07 10:26:37;;;;;;;;;;;;;;;;;;4989963;28;19963;-92
2023/09/07 10:29:05;;;;;;;;;;;;;;;;;;4996820;28;19924;-93
2023/09/07 10:31:31;;;;;;;;;;;;;;;;;;4996041;28;19929;-94
2023/09/07 10:33:57;;;;;;;;;;;;;;;;;;4991313;28;19917;-92
2023/09/07 10:36:23;;;;;;;;;;;;;;;;;;4991566;28;19928;-95
2023/09/07 10:38:59;;;;;;;;;;;;;;;;;;4995756;28;20377;-94
2023/09/07 10:41:26;;;;;;;;;;;;;;;;;;4997596;28;20396;-94
2023/09/07 10:43:52;;;;;;;;;;;;;;;;;;4995814;28;19921;-93
2023/09/07 10:46:24;;;;;;;;;;;;;;;;;;4992803;28;19968;-93
2023/09/07 10:48:53;;;;;;;;;;;;;;;;;;4998349;28;19920;-94
2023/09/07 10:51:22;;;;;;;;;;;;;;;;;;4990027;28;20350;-95
2023/09/07 10:53:51;;;;;;;;;;;;;;;;;;4997217;28;19913;-94
2023/09/07 10:56:17;;;;;;;;;;;;;;;;;;4996039;28;19992;-91
2023/09/07 10:58:53;;;;;;;;;;;;;;;;;;4993464;28;19959;-92
2023/09/07 11:04:12;;;;;;;;;;;;;;;;;;5005690;28;19976;-91
2023/09/07 11:06:38;;;;;;;;;;;;;;;;;;4999604;28;19917;-92
2023/09/07 11:09:04;;;;;;;;;;;;;;;;;;5000135;28;20525;-92
2023/09/07 11:11:33;;;;;;;;;;;;;;;;;;4995693;28;19917;-92
2023/09/07 11:13:59;;;;;;;;;;;;;;;;;;4995049;28;19920;-92
2023/09/07 11:16:27;;;;;;;;;;;;;;;;;;4987872;28;19917;-91
2023/09/07 11:18:54;;;;;;;;;;;;;;;;;;5008332;28;19925;-91
2023/09/07 11:21:20;;;;;;;;;;;;;;;;;;4974442;28;19987;-92
2023/09/07 11:23:46;;;;;;;;;;;;;;;;;;4966933;28;19918;-91
2023/09/07 11:26:12;;;;;;;;;;;;;;;;;;4981033;28;19980;-92
2023/09/07 11:28:44;;;;;;;;;;;;;;;;;;4978100;28;19917;-92
2023/09/07 11:31:10;;;;;;;;;;;;;;;;;;4980906;28;19921;-91
2023/09/07 11:33:37;;;;;;;;;;;;;;;;;;4978139;28;20017;-92
2023/09/07 11:36:03;;;;;;;;;;;;;;;;;;4980040;28;20491;-91
2023/09/07 11:38:29;;;;;;;;;;;;;;;;;;4982410;28;19913;-92
2023/09/07 11:40:54;;;;;;;;;;;;;;;;;;4980577;28;20544;-91
2023/09/07 11:43:27;;;;;;;;;;;;;;;;;;4980547;28;19922;-91
2023/09/07 11:46:00;;;;;;;;;;;;;;;;;;4974648;28;19972;-91
2023/09/07 11:48:26;;;;;;;;;;;;;;;;;;4984879;28;19917;-91
2023/09/07 11:50:53;;;;;;;;;;;;;;;;;;4979364;28;20416;-91
2023/09/07 11:53:19;;;;;;;;;;;;;;;;;;4977476;28;20381;-91
2023/09/07 11:55:45;;;;;;;;;;;;;;;;;;4977550;28;19918;-91
2023/09/07 11:58:11;;;;;;;;;;;;;;;;;;4978253;28;19914;-91
2023/09/07 12:00:37;;;;;;;;;;;;;;;;;;4977829;28;20003;-92
2023/09/07 12:03:13;;;;;;;;;;;;;;;;;;4981299;28;19917;-92
2023/09/07 12:05:41;;;;;;;;;;;;;;;;;;4977802;28;19921;-88
2023/09/07 12:08:07;;;;;;;;;;;;;;;;;;4996997;28;19921;-87
2023/09/07 12:10:33;;;;;;;;;;;;;;;;;;4993130;28;20818;-88
2023/09/07 12:12:59;;;;;;;;;;;;;;;;;;4973809;28;19917;-90
2023/09/07 12:15:26;;;;;;;;;;;;;;;;;;4973230;28;19917;-89
2023/09/07 12:17:54;;;;;;;;;;;;;;;;;;4978945;28;19925;-88
2023/09/07 12:20:21;;;;;;;;;;;;;;;;;;4975694;28;19929;-87
2023/09/07 12:22:47;;;;;;;;;;;;;;;;;;4971955;28;19922;-88
2023/09/07 12:25:13;;;;;;;;;;;;;;;;;;4976395;28;20000;-90
2023/09/07 12:27:39;;;;;;;;;;;;;;;;;;4978752;28;20378;-89
2023/09/07 12:30:08;;;;;;;;;;;;;;;;;;4997381;28;19920;-89
2023/09/07 12:32:34;;;;;;;;;;;;;;;;;;4983242;28;19945;-89
2023/09/07 12:35:00;;;;;;;;;;;;;;;;;;4973739;28;19979;-89
2023/09/07 12:37:26;;;;;;;;;;;;;;;;;;4994380;28;20389;-89
2023/09/07 12:39:52;;;;;;;;;;;;;;;;;;4973224;28;19917;-89
2023/09/07 12:42:18;;;;;;;;;;;;;;;;;;4972253;28;19913;-88
2023/09/07 12:44:44;;;;;;;;;;;;;;;;;;4966699;28;19922;-89
2023/09/07 12:47:10;;;;;;;;;;;;;;;;;;4972474;28;20337;-89
2023/09/07 12:49:36;;;;;;;;;;;;;;;;;;4975186;28;20017;-90
2023/09/07 12:52:08;;;;;;;;;;;;;;;;;;4975921;28;20284;-88
2023/09/07 12:54:34;;;;;;;;;;;;;;;;;;4974401;28;19920;-89
2023/09/07 12:57:04;;;;;;;;;;;;;;;;;;4971082;28;19926;-89
2023/09/07 12:59:30;;;;;;;;;;;;;;;;;;4975344;28;20463;-88
2023/09/07 13:01:56;;;;;;;;;;;;;;;;;;4972265;28;19978;-89
2023/09/07 13:04:21;;;;;;;;;;;;;;;;;;4971942;28;19921;-88
2023/09/07 13:06:47;;;;;;;;;;;;;;;;;;4978936;28;20349;-88
2023/09/07 13:09:14;;;;;;;;;;;;;;;;;;4968398;28;19918;-89
2023/09/07 13:11:40;;;;;;;;;;;;;;;;;;4972514;28;19917;-89
2023/09/07 13:14:08;;;;;;;;;;;;;;;;;;4967443;28;20116;-89
2023/09/07 13:16:36;;;;;;;;;;;;;;;;;;4973106;28;20090;-88
2023/09/07 13:19:02;;;;;;;;;;;;;;;;;;4965136;28;20285;-88
2023/09/07 13:21:34;;;;;;;;;;;;;;;;;;4974287;28;19933;-88
2023/09/07 13:24:00;;;;;;;;;;;;;;;;;;4970704;28;20453;-89
2023/09/07 13:26:26;;;;;;;;;;;;;;;;;;4997655;28;20219;-88
2023/09/07 13:28:52;;;;;;;;;;;;;;;;;;4987386;28;19918;-88
2023/09/07 13:31:18;;;;;;;;;;;;;;;;;;4976046;28;19913;-88
2023/09/07 13:33:44;;;;;;;;;;;;;;;;;;4976838;28;19917;-88
2023/09/07 13:36:10;;;;;;;;;;;;;;;;;;4976400;28;19924;-91
2023/09/07 13:38:36;;;;;;;;;;;;;;;;;;4977616;28;19917;-91
2023/09/07 13:41:02;;;;;;;;;;;;;;;;;;4973162;28;19918;-91
2023/09/07 13:43:28;;;;;;;;;;;;;;;;;;4976082;28;19917;-91
2023/09/07 13:45:54;;;;;;;;;;;;;;;;;;4969251;28;19933;-92
2023/09/07 13:48:20;;;;;;;;;;;;;;;;;;4978556;28;20310;-91
2023/09/07 13:50:46;;;;;;;;;;;;;;;;;;4987094;28;19918;-91
2023/09/07 13:53:13;;;;;;;;;;;;;;;;;;4978624;28;20492;-91
2023/09/07 13:55:39;;;;;;;;;;;;;;;;;;4969568;28;19993;-91
2023/09/07 13:58:05;;;;;;;;;;;;;;;;;;4993621;28;20325;-91
2023/09/07 14:00:31;;;;;;;;;;;;;;;;;;4967702;28;19928;-91
2023/09/07 14:02:57;;;;;;;;;;;;;;;;;;4971986;28;19920;-91
2023/09/07 14:05:23;;;;;;;;;;;;;;;;;;4972181;28;19921;-91
2023/09/07 14:07:49;;;;;;;;;;;;;;;;;;4970479;28;19918;-91
2023/09/07 14:10:15;;;;;;;;;;;;;;;;;;4967278;28;19973;-91
2023/09/07 14:12:44;;;;;;;;;;;;;;;;;;4971235;28;19918;-91
2023/09/07 14:15:09;;;;;;;;;;;;;;;;;;4968503;28;19949;-91
2023/09/07 14:17:35;;;;;;;;;;;;;;;;;;4969964;28;19953;-91
2023/09/07 14:20:01;;;;;;;;;;;;;;;;;;4969809;28;19928;-91
2023/09/07 14:22:27;;;;;;;;;;;;;;;;;;4974621;28;19914;-91
2023/09/07 14:24:53;;;;;;;;;;;;;;;;;;4988371;28;19926;-91
2023/09/07 14:27:19;;;;;;;;;;;;;;;;;;4979903;28;19940;-93
2023/09/07 14:29:45;;;;;;;;;;;;;;;;;;4974947;28;19913;-93
2023/09/07 14:32:11;;;;;;;;;;;;;;;;;;4973414;28;20016;-95
2023/09/07 14:34:37;;;;;;;;;;;;;;;;;;4974120;28;20077;-93
2023/09/07 14:37:03;;;;;;;;;;;;;;;;;;4974912;28;20513;-96
2023/09/07 14:39:29;;;;;;;;;;;;;;;;;;4972815;28;19917;-93
2023/09/07 14:41:55;;;;;;;;;;;;;;;;;;4971440;28;19910;-94
2023/09/07 14:44:21;;;;;;;;;;;;;;;;;;4972825;28;19918;-92
2023/09/07 14:46:49;;;;;;;;;;;;;;;;;;4972654;28;19922;-89
2023/09/07 14:49:15;;;;;;;;;;;;;;;;;;4965004;28;19918;-90
2023/09/07 14:51:41;;;;;;;;;;;;;;;;;;4976621;28;19922;-89
2023/09/07 14:54:07;;;;;;;;;;;;;;;;;;4967017;28;19916;-89
2023/09/07 14:56:35;;;;;;;;;;;;;;;;;;4975253;28;19917;-90
2023/09/07 14:59:01;;;;;;;;;;;;;;;;;;4968523;28;19913;-89
2023/09/07 15:01:27;;;;;;;;;;;;;;;;;;4973998;28;20420;-90
2023/09/07 15:03:53;;;;;;;;;;;;;;;;;;4967267;28;19961;-90
2023/09/07 15:06:19;;;;;;;;;;;;;;;;;;4970751;28;20004;-89
2023/09/07 15:08:44;;;;;;;;;;;;;;;;;;4967513;28;19918;-90
2023/09/07 15:11:12;;;;;;;;;;;;;;;;;;4965751;28;20650;-89
2023/09/07 15:13:39;;;;;;;;;;;;;;;;;;4970856;28;19920;-90
2023/09/07 15:16:05;;;;;;;;;;;;;;;;;;4969232;28;19997;-89
2023/09/07 15:18:31;;;;;;;;;;;;;;;;;;4962452;28;20009;-90
2023/09/07 15:20:57;;;;;;;;;;;;;;;;;;4985609;28;19926;-90
2023/09/07 15:23:23;;;;;;;;;;;;;;;;;;4986469;28;19917;-89
2023/09/07 15:25:49;;;;;;;;;;;;;;;;;;4985099;28;19987;-89
2023/09/07 15:28:15;;;;;;;;;;;;;;;;;;4996520;28;19913;-90
2023/09/07 15:30:41;;;;;;;;;;;;;;;;;;4990808;28;19920;-89
2023/09/07 15:33:07;;;;;;;;;;;;;;;;;;5000732;28;19913;-90
2023/09/07 15:35:33;;;;;;;;;;;;;;;;;;5020300;28;19921;-89
2023/09/07 15:37:59;;;;;;;;;;;;;;;;;;4999719;28;20068;-89
2023/09/07 15:40:25;;;;;;;;;;;;;;;;;;5004197;28;19956;-90
2023/09/07 15:42:51;;;;;;;;;;;;;;;;;;5008247;28;19908;-89
2023/09/07 15:45:17;;;;;;;;;;;;;;;;;;4995744;28;19913;-90
2023/09/07 15:47:43;;;;;;;;;;;;;;;;;;5004786;28;19917;-89
2023/09/07 15:50:09;;;;;;;;;;;;;;;;;;4996920;28;19960;-89
2023/09/07 15:52:35;;;;;;;;;;;;;;;;;;4998744;28;19944;-88
2023/09/07 15:55:02;;;;;;;;;;;;;;;;;;4995388;28;19922;-89
2023/09/07 15:57:29;;;;;;;;;;;;;;;;;;4998720;28;19937;-87
2023/09/07 15:59:58;;;;;;;;;;;;;;;;;;4995316;28;19914;-89
2023/09/07 16:02:24;;;;;;;;;;;;;;;;;;4994161;28;19988;-89
2023/09/07 16:04:50;;;;;;;;;;;;;;;;;;4992519;28;20412;-90
2023/09/07 16:07:16;;;;;;;;;;;;;;;;;;4991040;28;20016;-90
2023/09/07 16:09:42;;;;;;;;;;;;;;;;;;5001457;28;20162;-89
2023/09/07 16:12:10;;;;;;;;;;;;;;;;;;4995137;28;19918;-90
2023/09/07 16:14:36;;;;;;;;;;;;;;;;;;4995493;28;20481;-90
2023/09/07 16:17:02;;;;;;;;;;;;;;;;;;5002256;28;19914;-89
2023/09/07 16:19:29;;;;;;;;;;;;;;;;;;4996263;28;19922;-89
2023/09/07 16:21:55;;;;;;;;;;;;;;;;;;4983646;28;19956;-89
2023/09/07 16:24:21;;;;;;;;;;;;;;;;;;4987484;28;20021;-90
2023/09/07 16:26:47;;;;;;;;;;;;;;;;;;4990515;28;19961;-90
2023/09/07 16:29:13;;;;;;;;;;;;;;;;;;4985511;28;19924;-89
2023/09/07 16:31:39;;;;;;;;;;;;;;;;;;4985447;28;20443;-89
2023/09/07 16:34:05;;;;;;;;;;;;;;;;;;4989742;28;19918;-89
2023/09/07 16:36:31;;;;;;;;;;;;;;;;;;4979560;28;19981;-90
2023/09/07 16:38:57;;;;;;;;;;;;;;;;;;4982247;28;20008;-89
2023/09/07 16:41:23;;;;;;;;;;;;;;;;;;4979531;28;19921;-90
2023/09/07 16:43:49;;;;;;;;;;;;;;;;;;4983465;28;19917;-90